createdAt,value
2022-11-05T00:00:17.127Z,10.31
2022-11-05T00:03:03.020Z,10.45
2022-11-05T00:05:49.891Z,10.40
2022-11-05T00:08:48.414Z,10.81
2022-11-05T00:11:18.305Z,10.74
2022-11-05T00:14:04.596Z,10.77
2022-11-05T00:16:44.777Z,10.35
2022-11-05T00:19:13.580Z,10.36
2022-11-05T00:22:04.651Z,10.61
2022-11-05T00:24:51.715Z,10.78
2022-11-05T00:27:19.968Z,10.69
2022-11-05T00:29:47.972Z,10.62
2022-11-05T00:32:16.138Z,10.82
2022-11-05T00:34:45.364Z,10.81
2022-11-05T00:37:16.658Z,10.85
2022-11-05T00:39:46.152Z,10.90
2022-11-05T00:42:31.911Z,10.86
2022-11-05T00:45:02.989Z,11.03
2022-11-05T00:47:50.750Z,10.95
2022-11-05T00:50:19.673Z,10.96
2022-11-05T00:52:57.645Z,10.98
2022-11-05T00:55:33.468Z,10.71
2022-11-05T00:58:02.934Z,10.68
2022-11-05T01:00:32.680Z,11.01
2022-11-05T01:03:02.419Z,10.70
2022-11-05T01:05:32.306Z,10.81
2022-11-05T01:08:00.725Z,10.92
2022-11-05T01:10:30.200Z,10.97
2022-11-05T01:12:59.115Z,11.03
2022-11-05T01:15:27.404Z,10.97
2022-11-05T01:17:55.551Z,10.70
2022-11-05T01:20:23.858Z,11.01
2022-11-05T01:22:51.988Z,10.76
2022-11-05T01:25:20.299Z,10.83
2022-11-05T01:27:49.731Z,10.96
2022-11-05T01:30:18.047Z,10.59
2022-11-05T01:32:46.233Z,10.71
2022-11-05T01:35:16.765Z,10.63
2022-11-05T01:37:45.116Z,10.67
2022-11-05T01:40:15.851Z,10.49
2022-11-05T01:42:44.534Z,10.83
2022-11-05T01:45:17.208Z,10.64
2022-11-05T01:48:02.629Z,10.77
2022-11-05T01:50:49.341Z,10.91
2022-11-05T01:53:25.241Z,10.59
2022-11-05T01:55:58.910Z,10.82
2022-11-05T01:58:32.675Z,11.10
2022-11-05T02:01:02.627Z,10.59
2022-11-05T02:03:31.161Z,10.54
2022-11-05T02:06:02.315Z,10.93
2022-11-05T02:08:46.303Z,10.96
2022-11-05T02:14:53.731Z,11.18
2022-11-05T02:17:34.598Z,10.86
2022-11-05T02:20:18.895Z,11.05
2022-11-05T02:23:12.883Z,10.94
2022-11-05T02:26:32.852Z,10.80
2022-11-05T02:29:41.925Z,11.11
2022-11-05T02:32:21.194Z,10.61
2022-11-05T02:34:56.734Z,10.89
2022-11-05T02:37:38.374Z,10.86
2022-11-05T02:40:14.674Z,10.86
2022-11-05T02:42:47.184Z,10.61
2022-11-05T02:45:26.961Z,10.86
2022-11-05T02:48:01.347Z,10.54
2022-11-05T02:50:35.108Z,10.69
2022-11-05T02:53:10.232Z,10.80
2022-11-05T02:55:43.092Z,10.77
2022-11-05T02:58:11.226Z,10.82
2022-11-05T03:00:50.115Z,10.44
2022-11-05T03:03:29.780Z,10.73
2022-11-05T03:06:18.723Z,10.90
2022-11-05T03:09:24.255Z,10.60
2022-11-05T03:12:01.191Z,10.85
2022-11-05T03:14:41.467Z,11.08
2022-11-05T03:17:20.059Z,10.84
2022-11-05T03:19:54.851Z,10.74
2022-11-05T03:22:25.513Z,10.83
2022-11-05T03:24:59.315Z,10.78
2022-11-05T03:27:31.395Z,11.02
2022-11-05T03:30:03.487Z,10.72
2022-11-05T03:32:35.051Z,10.87
2022-11-05T03:35:09.647Z,10.62
2022-11-05T03:37:41.023Z,10.53
2022-11-05T03:40:13.005Z,11.04
2022-11-05T03:42:46.336Z,10.93
2022-11-05T03:45:20.106Z,10.77
2022-11-05T03:47:51.537Z,10.81
2022-11-05T03:50:24.741Z,10.70
2022-11-05T03:52:55.589Z,10.61
2022-11-05T03:55:30.371Z,10.90
2022-11-05T03:58:00.459Z,10.94
2022-11-05T04:00:28.539Z,10.73
2022-11-05T04:02:56.981Z,10.77
2022-11-05T04:05:26.531Z,10.87
2022-11-05T04:08:14.501Z,10.97
2022-11-05T04:11:02.489Z,10.88
2022-11-05T04:13:30.652Z,10.66
2022-11-05T04:16:19.565Z,10.74
2022-11-05T04:18:48.305Z,10.81
2022-11-05T04:21:35.290Z,10.55
2022-11-05T04:24:09.518Z,10.63
2022-11-05T04:26:38.979Z,10.68
2022-11-05T04:29:24.966Z,11.07
2022-11-05T04:31:53.838Z,10.57
2022-11-05T04:34:23.022Z,10.45
2022-11-05T04:36:54.175Z,10.65
2022-11-05T04:39:22.633Z,10.56
2022-11-05T04:41:50.579Z,10.72
2022-11-05T04:44:18.705Z,10.63
2022-11-05T04:46:46.691Z,10.80
2022-11-05T04:49:14.876Z,10.52
2022-11-05T04:51:43.185Z,10.41
2022-11-05T04:54:12.556Z,10.62
2022-11-05T04:56:40.508Z,10.71
2022-11-05T04:59:08.530Z,10.33
2022-11-05T05:01:36.616Z,10.32
2022-11-05T05:04:04.949Z,10.70
2022-11-05T05:06:32.920Z,10.78
2022-11-05T05:09:01.248Z,10.58
2022-11-05T05:11:30.788Z,10.53
2022-11-05T05:13:58.802Z,10.42
2022-11-05T05:16:28.300Z,10.50
2022-11-05T05:18:56.430Z,10.72
2022-11-05T05:21:39.249Z,10.61
2022-11-05T05:24:09.762Z,10.51
2022-11-05T05:26:41.073Z,10.61
2022-11-05T05:29:10.414Z,10.71
2022-11-05T05:31:39.108Z,10.77
2022-11-05T05:34:08.737Z,10.38
2022-11-05T05:36:36.653Z,10.42
2022-11-05T05:39:06.187Z,10.66
2022-11-05T05:41:35.008Z,10.17
2022-11-05T05:44:05.861Z,10.50
2022-11-05T05:46:33.971Z,10.58
2022-11-05T05:49:03.035Z,10.84
2022-11-05T05:51:32.485Z,10.73
2022-11-05T05:54:00.507Z,10.27
2022-11-05T05:56:28.693Z,10.50
2022-11-05T05:58:57.061Z,10.52
2022-11-05T06:01:26.610Z,10.54
2022-11-05T06:03:54.796Z,10.88
2022-11-05T06:06:22.792Z,11.17
2022-11-05T06:08:50.847Z,11.19
2022-11-05T06:11:18.942Z,11.19
2022-11-05T06:13:46.975Z,11.19
2022-11-05T06:16:15.124Z,11.07
2022-11-05T06:18:44.567Z,11.13
2022-11-05T06:21:14.684Z,11.06
2022-11-05T06:23:45.118Z,11.04
2022-11-05T06:26:15.602Z,11.00
2022-11-05T06:28:44.205Z,11.04
2022-11-05T06:31:14.326Z,10.48
2022-11-05T06:33:42.526Z,10.85
2022-11-05T06:36:15.716Z,10.84
2022-11-05T06:38:43.872Z,11.23
2022-11-05T06:41:11.833Z,11.01
2022-11-05T06:43:40.109Z,11.24
2022-11-05T06:46:08.750Z,11.19
2022-11-05T06:48:36.718Z,11.06
2022-11-05T06:51:05.614Z,10.80
2022-11-05T06:53:36.175Z,10.67
2022-11-05T06:56:05.537Z,10.74
2022-11-05T06:58:34.159Z,10.88
2022-11-05T07:01:03.332Z,10.84
2022-11-05T07:03:31.531Z,10.92
2022-11-05T07:06:00.915Z,11.26
2022-11-05T07:08:32.024Z,11.22
2022-11-05T07:11:01.899Z,11.29
2022-11-05T07:13:29.875Z,11.80
2022-11-05T07:15:57.986Z,11.57
2022-11-05T07:18:26.191Z,11.35
2022-11-05T07:20:54.262Z,11.65
2022-11-05T07:23:22.407Z,11.40
2022-11-05T07:25:50.401Z,11.30
2022-11-05T07:28:20.416Z,11.26
2022-11-05T07:30:49.293Z,11.70
2022-11-05T07:33:17.304Z,11.77
2022-11-05T07:35:45.412Z,11.30
2022-11-05T07:38:13.465Z,11.60
2022-11-05T07:40:41.614Z,11.47
2022-11-05T07:43:10.001Z,11.75
2022-11-05T07:45:39.979Z,11.61
2022-11-05T07:48:08.480Z,11.59
2022-11-05T07:50:38.183Z,12.04
2022-11-05T07:53:08.024Z,11.54
2022-11-05T07:55:36.633Z,11.81
2022-11-05T07:58:05.014Z,11.80
2022-11-05T08:00:34.293Z,11.68
2022-11-05T08:03:08.498Z,11.67
2022-11-05T08:05:39.703Z,11.91
2022-11-05T08:08:09.491Z,11.91
2022-11-05T08:10:38.857Z,12.22
2022-11-05T08:13:08.666Z,12.01
2022-11-05T08:15:37.197Z,12.25
2022-11-05T08:18:08.499Z,12.34
2022-11-05T08:20:38.488Z,13.23
2022-11-05T08:23:06.772Z,13.12
2022-11-05T08:25:34.852Z,13.29
2022-11-05T08:28:05.211Z,12.86
2022-11-05T08:30:33.978Z,12.60
2022-11-05T08:33:04.775Z,12.27
2022-11-05T08:35:35.576Z,11.89
2022-11-05T08:38:06.387Z,12.13
2022-11-05T08:40:37.067Z,14.65
2022-11-05T08:43:07.510Z,13.86
2022-11-05T08:45:38.514Z,13.21
2022-11-05T08:48:08.841Z,13.08
2022-11-05T08:50:40.541Z,13.05
2022-11-05T08:53:10.605Z,13.04
2022-11-05T08:55:39.185Z,13.44
2022-11-05T08:58:09.103Z,13.73
2022-11-05T09:00:37.934Z,14.76
2022-11-05T09:03:08.335Z,14.79
2022-11-05T09:05:39.286Z,13.66
2022-11-05T09:08:10.388Z,13.43
2022-11-05T09:10:39.061Z,13.08
2022-11-05T09:13:07.136Z,12.82
2022-11-05T09:15:36.546Z,12.25
2022-11-05T09:18:05.992Z,12.17
2022-11-05T09:20:36.704Z,13.41
2022-11-05T09:23:04.787Z,16.23
2022-11-05T09:25:34.730Z,17.78
2022-11-05T09:28:15.909Z,16.69
2022-11-05T09:30:46.885Z,15.84
2022-11-05T09:33:15.298Z,14.95
2022-11-05T09:35:43.728Z,14.45
2022-11-05T09:38:11.691Z,14.09
2022-11-05T09:40:48.259Z,13.42
2022-11-05T09:43:20.311Z,13.06
2022-11-05T09:45:52.892Z,12.93
2022-11-05T09:48:25.974Z,12.98
2022-11-05T09:50:55.146Z,12.70
2022-11-05T09:53:24.952Z,12.57
2022-11-05T09:55:57.348Z,12.69
2022-11-05T09:58:37.242Z,13.12
2022-11-05T10:01:07.675Z,13.77
2022-11-05T10:03:43.853Z,12.77
2022-11-05T10:06:18.499Z,12.76
2022-11-05T10:08:50.384Z,14.54
2022-11-05T10:11:26.056Z,15.03
2022-11-05T10:14:00.255Z,13.61
2022-11-05T10:16:32.084Z,13.89
2022-11-05T10:19:07.295Z,14.45
2022-11-05T10:22:04.411Z,14.13
2022-11-05T10:24:24.752Z,15.07
2022-11-05T10:26:55.697Z,13.75
2022-11-05T10:29:29.276Z,12.30
2022-11-05T10:31:58.981Z,12.47
2022-11-05T10:34:31.375Z,13.18
2022-11-05T10:36:59.632Z,15.02
2022-11-05T10:39:28.719Z,16.24
2022-11-05T10:42:10.011Z,15.77
2022-11-05T10:44:45.196Z,15.80
2022-11-05T10:47:36.307Z,15.92
2022-11-05T10:50:10.726Z,14.05
2022-11-05T10:52:41.253Z,12.69
2022-11-05T10:55:18.129Z,12.72
2022-11-05T10:57:49.434Z,12.50
2022-11-05T11:00:31.551Z,12.43
2022-11-05T11:03:01.683Z,13.25
2022-11-05T11:05:32.898Z,14.80
2022-11-05T11:08:22.306Z,16.81
2022-11-05T11:10:53.019Z,16.39
2022-11-05T11:13:24.287Z,15.35
2022-11-05T11:15:52.805Z,13.75
2022-11-05T11:18:35.878Z,13.54
2022-11-05T11:21:13.286Z,13.20
2022-11-05T11:23:42.943Z,12.73
2022-11-05T11:26:12.832Z,12.34
2022-11-05T11:28:47.149Z,12.41
2022-11-05T11:31:18.350Z,11.98
2022-11-05T11:33:49.225Z,11.82
2022-11-05T11:36:18.980Z,11.66
2022-11-05T11:38:47.484Z,11.43
2022-11-05T11:41:26.421Z,11.95
2022-11-05T11:43:58.495Z,13.31
2022-11-05T11:46:27.276Z,13.95
2022-11-05T11:48:55.295Z,14.13
2022-11-05T11:51:34.246Z,14.34
2022-11-05T11:54:03.056Z,15.00
2022-11-05T11:56:32.565Z,14.92
2022-11-05T11:59:12.921Z,14.99
2022-11-05T12:02:08.435Z,15.07
2022-11-05T12:04:52.220Z,15.24
2022-11-05T12:07:31.670Z,15.71
2022-11-05T12:10:12.758Z,16.02
2022-11-05T12:12:48.094Z,16.82
2022-11-05T12:15:31.227Z,16.55
2022-11-05T12:18:03.707Z,16.18
2022-11-05T12:20:48.110Z,15.43
2022-11-05T12:23:48.847Z,14.32
2022-11-05T12:26:28.542Z,14.43
2022-11-05T12:29:18.704Z,14.57
2022-11-05T12:32:00.044Z,14.48
2022-11-05T12:34:43.806Z,14.02
2022-11-05T12:37:24.037Z,14.07
2022-11-05T12:40:15.835Z,14.47
2022-11-05T12:42:57.799Z,14.58
2022-11-05T12:45:40.245Z,14.41
2022-11-05T12:48:30.360Z,13.96
2022-11-05T12:51:12.630Z,13.59
2022-11-05T12:53:54.038Z,13.27
2022-11-05T12:56:28.511Z,12.45
2022-11-05T12:59:02.066Z,12.97
2022-11-05T13:01:37.826Z,13.28
2022-11-05T13:04:15.699Z,14.15
2022-11-05T13:06:49.685Z,14.72
2022-11-05T13:09:21.297Z,14.89
2022-11-05T13:11:54.696Z,15.46
2022-11-05T13:14:27.888Z,15.98
2022-11-05T13:17:01.231Z,16.38
2022-11-05T13:19:35.981Z,15.79
2022-11-05T13:22:09.771Z,14.91
2022-11-05T13:24:41.465Z,14.94
2022-11-05T13:27:31.861Z,14.09
2022-11-05T13:30:05.498Z,13.48
2022-11-05T13:32:37.365Z,13.37
2022-11-05T13:35:15.211Z,13.54
2022-11-05T13:38:03.916Z,13.15
2022-11-05T13:40:45.914Z,13.36
2022-11-05T13:43:32.807Z,13.42
2022-11-05T13:46:16.731Z,13.02
2022-11-05T13:49:17.192Z,13.05
2022-11-05T13:52:03.808Z,12.62
2022-11-05T13:55:19.061Z,12.98
2022-11-05T13:58:09.397Z,13.08
2022-11-05T14:00:42.408Z,13.15
2022-11-05T14:03:19.352Z,13.09
2022-11-05T14:05:55.538Z,12.99
2022-11-05T14:08:29.057Z,12.72
2022-11-05T14:11:04.287Z,12.52
2022-11-05T14:13:36.227Z,12.30
2022-11-05T14:16:07.984Z,12.50
2022-11-05T14:18:40.366Z,12.19
2022-11-05T14:21:31.714Z,12.37
2022-11-05T14:24:20.232Z,12.65
2022-11-05T14:27:32.952Z,12.57
2022-11-05T14:30:01.885Z,12.57
2022-11-05T14:32:50.012Z,12.75
2022-11-05T14:35:37.777Z,12.81
2022-11-05T14:38:07.480Z,12.64
2022-11-05T14:40:39.666Z,12.47
2022-11-05T14:43:22.505Z,12.63
2022-11-05T14:45:56.268Z,12.22
2022-11-05T14:48:32.845Z,12.16
2022-11-05T14:51:00.992Z,12.02
2022-11-05T14:53:34.757Z,11.94
2022-11-05T14:56:08.083Z,12.04
2022-11-05T14:58:38.175Z,11.91
2022-11-05T15:01:08.297Z,11.70
2022-11-05T15:04:06.703Z,11.59
2022-11-05T15:06:36.765Z,11.59
2022-11-05T15:09:24.027Z,11.66
2022-11-05T15:12:09.121Z,11.55
2022-11-05T15:14:42.409Z,11.55
2022-11-05T15:17:19.550Z,11.59
2022-11-05T15:19:48.657Z,11.66
2022-11-05T15:22:30.334Z,11.64
2022-11-05T15:24:58.687Z,11.61
2022-11-05T15:27:58.151Z,10.64
2022-11-05T15:30:27.260Z,10.65
2022-11-05T15:32:55.382Z,11.03
2022-11-05T15:35:27.017Z,11.53
2022-11-05T15:38:01.800Z,11.86
2022-11-05T15:40:33.479Z,11.93
2022-11-05T15:43:19.486Z,11.91
2022-11-05T15:46:05.602Z,11.44
2022-11-05T15:48:34.577Z,11.39
2022-11-05T15:51:03.006Z,11.26
2022-11-05T15:53:56.529Z,11.20
2022-11-05T15:56:26.045Z,10.91
2022-11-05T15:58:59.832Z,10.85
2022-11-05T16:01:33.370Z,10.63
2022-11-05T16:04:09.767Z,10.66
2022-11-05T16:06:40.869Z,10.54
2022-11-05T16:09:09.171Z,10.43
2022-11-05T16:11:37.738Z,10.29
2022-11-05T16:14:18.533Z,10.30
2022-11-05T16:16:47.454Z,10.23
2022-11-05T16:19:40.850Z,10.10
2022-11-05T16:22:09.777Z,10.03
2022-11-05T16:24:37.892Z,10.04
2022-11-05T16:27:07.099Z,9.95
2022-11-05T16:29:38.640Z,9.74
2022-11-05T16:32:17.464Z,9.67
2022-11-05T16:34:49.371Z,9.54
2022-11-05T16:37:21.544Z,9.49
2022-11-05T16:39:49.659Z,9.47
2022-11-05T16:42:37.970Z,9.46
2022-11-05T16:45:13.658Z,9.39
2022-11-05T16:47:42.728Z,9.31
2022-11-05T16:50:23.958Z,9.09
2022-11-05T16:52:52.784Z,9.20
2022-11-05T16:55:21.474Z,9.16
2022-11-05T16:57:52.349Z,9.04
2022-11-05T17:00:23.225Z,8.91
2022-11-05T17:02:52.035Z,8.72
2022-11-05T17:05:23.251Z,8.61
2022-11-05T17:07:51.817Z,8.62
2022-11-05T17:10:20.445Z,8.61
2022-11-05T17:12:49.075Z,8.55
2022-11-05T17:15:22.317Z,8.58
2022-11-05T17:17:50.868Z,8.68
2022-11-05T17:20:39.431Z,8.54
2022-11-05T17:23:10.204Z,8.34
2022-11-05T17:25:39.000Z,8.24
2022-11-05T17:28:10.988Z,8.20
2022-11-05T17:30:41.945Z,8.13
2022-11-05T17:33:11.304Z,8.11
2022-11-05T17:35:40.430Z,8.17
2022-11-05T17:38:08.655Z,8.25
2022-11-05T17:40:37.759Z,8.08
2022-11-05T17:43:07.318Z,8.26
2022-11-05T17:45:36.084Z,8.18
2022-11-05T17:48:05.877Z,8.12
2022-11-05T17:50:33.821Z,8.16
2022-11-05T17:53:02.248Z,8.21
2022-11-05T17:55:30.223Z,8.17
2022-11-05T17:57:58.404Z,8.19
2022-11-05T18:00:26.414Z,8.17
2022-11-05T18:02:55.058Z,8.12
2022-11-05T18:05:27.855Z,8.11
2022-11-05T18:07:56.517Z,8.04
2022-11-05T18:10:25.470Z,7.95
2022-11-05T18:12:53.547Z,7.72
2022-11-05T18:15:21.546Z,7.62
2022-11-05T18:17:49.850Z,7.83
2022-11-05T18:20:19.661Z,7.62
2022-11-05T18:22:51.847Z,7.68
2022-11-05T18:25:19.967Z,7.68
2022-11-05T18:27:48.095Z,7.72
2022-11-05T18:30:16.131Z,7.86
2022-11-05T18:32:44.806Z,7.69
2022-11-05T18:35:13.243Z,7.51
2022-11-05T18:37:42.034Z,7.56
2022-11-05T18:40:12.544Z,7.55
2022-11-05T18:42:40.834Z,7.49
2022-11-05T18:45:10.497Z,7.42
2022-11-05T18:47:38.637Z,7.34
2022-11-05T18:50:09.315Z,7.40
2022-11-05T18:52:37.544Z,7.47
2022-11-05T18:55:06.312Z,7.52
2022-11-05T18:57:36.029Z,7.57
2022-11-05T19:00:05.226Z,7.56
2022-11-05T19:02:33.721Z,7.60
2022-11-05T19:07:50.010Z,7.43
2022-11-05T19:10:19.211Z,7.37
2022-11-05T19:12:48.592Z,7.21
2022-11-05T19:15:16.646Z,7.12
2022-11-05T19:17:45.431Z,7.14
2022-11-05T19:20:13.557Z,7.20
2022-11-05T19:22:41.574Z,7.15
2022-11-05T19:25:09.610Z,7.30
2022-11-05T19:27:38.618Z,7.29
2022-11-05T19:30:09.043Z,7.21
2022-11-05T19:32:37.203Z,7.20
2022-11-05T19:35:07.760Z,7.29
2022-11-05T19:37:35.756Z,7.33
2022-11-05T19:40:03.696Z,7.19
2022-11-05T19:42:31.650Z,7.12
2022-11-05T19:45:16.745Z,7.24
2022-11-05T19:47:49.197Z,7.32
2022-11-05T19:50:17.962Z,7.26
2022-11-05T19:52:45.953Z,7.41
2022-11-05T19:55:14.093Z,7.42
2022-11-05T19:57:42.077Z,7.31
2022-11-05T20:00:11.171Z,7.30
2022-11-05T20:02:39.179Z,7.27
2022-11-05T20:05:09.276Z,7.19
2022-11-05T20:07:37.662Z,7.34
2022-11-05T20:10:06.624Z,7.14
2022-11-05T20:12:35.365Z,6.92
2022-11-05T20:15:03.675Z,7.02
2022-11-05T20:17:32.135Z,6.99
2022-11-05T20:20:00.623Z,6.91
2022-11-05T20:22:29.967Z,6.76
2022-11-05T20:24:58.033Z,6.75
2022-11-05T20:27:26.105Z,6.71
2022-11-05T20:29:54.000Z,6.84
2022-11-05T20:32:22.261Z,7.00
2022-11-05T20:34:53.256Z,7.02
2022-11-05T20:37:21.229Z,7.05
2022-11-05T20:39:50.470Z,7.06
2022-11-05T20:42:18.832Z,7.13
2022-11-05T20:44:46.870Z,7.09
2022-11-05T20:47:14.896Z,7.05
2022-11-05T20:49:43.026Z,7.12
2022-11-05T20:52:12.198Z,7.20
2022-11-05T20:54:40.120Z,7.28
2022-11-05T20:57:10.782Z,7.08
2022-11-05T20:59:38.789Z,6.95
2022-11-05T21:02:06.909Z,6.68
2022-11-05T21:04:34.999Z,6.61
2022-11-05T21:07:02.997Z,6.52
2022-11-05T21:09:31.110Z,6.39
2022-11-05T21:12:11.224Z,6.41
2022-11-05T21:14:41.884Z,6.50
2022-11-05T21:17:12.266Z,6.72
2022-11-05T21:19:40.518Z,6.76
2022-11-05T21:22:08.718Z,6.63
2022-11-05T21:24:36.939Z,6.71
2022-11-05T21:27:05.268Z,6.57
2022-11-05T21:29:33.241Z,6.73
2022-11-05T21:32:02.856Z,6.67
2022-11-05T21:34:30.995Z,6.85
2022-11-05T21:36:59.029Z,6.84
2022-11-05T21:39:27.737Z,6.83
2022-11-05T21:41:57.361Z,6.78
2022-11-05T21:44:25.647Z,6.73
2022-11-05T21:46:57.512Z,6.81
2022-11-05T21:49:27.090Z,6.86
2022-11-05T21:52:27.496Z,6.95
2022-11-05T21:55:13.353Z,6.99
2022-11-05T21:57:59.642Z,6.64
2022-11-05T22:00:27.672Z,6.74
2022-11-05T22:02:55.779Z,6.75
2022-11-05T22:05:25.442Z,6.75
2022-11-05T22:07:53.845Z,6.85
2022-11-05T22:10:22.248Z,6.94
2022-11-05T22:12:50.286Z,7.05
2022-11-05T22:15:18.270Z,7.04
2022-11-05T22:17:47.467Z,7.17
2022-11-05T22:20:16.318Z,7.10
2022-11-05T22:22:46.726Z,6.91
2022-11-05T22:25:15.260Z,6.74
2022-11-05T22:27:44.008Z,6.59
2022-11-05T22:30:13.698Z,6.56
2022-11-05T22:32:41.665Z,6.38
2022-11-05T22:35:10.503Z,6.40
2022-11-05T22:37:38.499Z,6.39
2022-11-05T22:40:09.687Z,6.28
2022-11-05T22:42:38.369Z,6.17
2022-11-05T22:45:07.448Z,6.25
2022-11-05T22:47:35.498Z,6.23
2022-11-05T22:50:03.515Z,6.27
2022-11-05T22:52:32.717Z,6.30
2022-11-05T22:55:02.614Z,6.30
2022-11-05T22:57:32.013Z,6.27
2022-11-05T23:00:00.363Z,6.23
2022-11-05T23:02:28.520Z,6.24
2022-11-05T23:04:56.766Z,6.23
2022-11-05T23:07:42.199Z,6.24
2022-11-05T23:10:27.949Z,6.25
2022-11-05T23:12:57.252Z,6.44
2022-11-05T23:15:42.909Z,6.35
2022-11-05T23:18:29.380Z,6.42
2022-11-05T23:21:19.186Z,6.27
2022-11-05T23:24:06.005Z,6.30
2022-11-05T23:26:54.046Z,6.28
2022-11-05T23:29:25.444Z,6.25
2022-11-05T23:32:11.744Z,6.14
2022-11-05T23:34:40.023Z,6.07
2022-11-05T23:37:25.713Z,6.13
2022-11-05T23:39:53.804Z,6.19
2022-11-05T23:42:40.146Z,6.16
2022-11-05T23:45:28.766Z,6.20
2022-11-05T23:48:14.532Z,6.06
2022-11-05T23:50:44.733Z,6.16
2022-11-05T23:53:12.859Z,6.19
2022-11-05T23:55:40.937Z,6.18
2022-11-05T23:58:09.529Z,6.17
